sensor_id;sensor_type;location;lat;lon;timestamp;temperature;humidity
66019;HTU21D;52787;51.084;5.816;2022-08-11T00:01:51;23.73;49.63
66019;HTU21D;52787;51.084;5.816;2022-08-11T00:04:23;23.70;49.16
66019;HTU21D;52787;51.084;5.816;2022-08-11T00:06:51;23.66;49.35
66019;HTU21D;52787;51.084;5.816;2022-08-11T00:09:21;23.65;49.86
66019;HTU21D;52787;51.084;5.816;2022-08-11T00:11:53;23.62;49.31
66019;HTU21D;52787;51.084;5.816;2022-08-11T00:14:22;23.61;48.57
66019;HTU21D;52787;51.084;5.816;2022-08-11T00:19:31;23.57;49.21
66019;HTU21D;52787;51.084;5.816;2022-08-11T00:22:00;23.53;49.17
66019;HTU21D;52787;51.084;5.816;2022-08-11T00:24:35;23.50;49.23
66019;HTU21D;52787;51.084;5.816;2022-08-11T00:27:04;23.46;49.27
66019;HTU21D;52787;51.084;5.816;2022-08-11T00:29:30;23.40;48.79
66019;HTU21D;52787;51.084;5.816;2022-08-11T00:32:00;23.36;48.93
66019;HTU21D;52787;51.084;5.816;2022-08-11T00:34:32;23.31;48.78
66019;HTU21D;52787;51.084;5.816;2022-08-11T00:37:17;23.29;48.94
66019;HTU21D;52787;51.084;5.816;2022-08-11T00:39:49;23.27;48.82
66019;HTU21D;52787;51.084;5.816;2022-08-11T00:45:45;23.22;49.49
66019;HTU21D;52787;51.084;5.816;2022-08-11T00:48:38;23.21;49.56
66019;HTU21D;52787;51.084;5.816;2022-08-11T00:51:45;23.20;49.40
66019;HTU21D;52787;51.084;5.816;2022-08-11T01:03:10;23.01;50.27
66019;HTU21D;52787;51.084;5.816;2022-08-11T01:06:28;22.96;49.56
66019;HTU21D;52787;51.084;5.816;2022-08-11T01:12:42;22.88;49.86
66019;HTU21D;52787;51.084;5.816;2022-08-11T01:16:02;22.86;49.95
66019;HTU21D;52787;51.084;5.816;2022-08-11T01:46:31;22.61;50.42
66019;HTU21D;52787;51.084;5.816;2022-08-11T01:57:55;22.52;50.90
66019;HTU21D;52787;51.084;5.816;2022-08-11T02:00:57;22.46;51.32
66019;HTU21D;52787;51.084;5.816;2022-08-11T02:03:33;22.40;51.81
66019;HTU21D;52787;51.084;5.816;2022-08-11T02:09:40;22.27;52.24
66019;HTU21D;52787;51.084;5.816;2022-08-11T02:15:07;22.18;52.53
66019;HTU21D;52787;51.084;5.816;2022-08-11T02:17:52;22.11;52.70
66019;HTU21D;52787;51.084;5.816;2022-08-11T02:24:05;22.05;52.97
66019;HTU21D;52787;51.084;5.816;2022-08-11T02:30:08;21.95;52.50
66019;HTU21D;52787;51.084;5.816;2022-08-11T02:36:06;21.87;53.09
66019;HTU21D;52787;51.084;5.816;2022-08-11T02:39:07;21.83;53.47
66019;HTU21D;52787;51.084;5.816;2022-08-11T02:42:04;21.77;53.68
66019;HTU21D;52787;51.084;5.816;2022-08-11T02:48:04;21.65;54.27
66019;HTU21D;52787;51.084;5.816;2022-08-11T02:54:38;21.54;54.49
66019;HTU21D;52787;51.084;5.816;2022-08-11T03:00:22;21.45;55.10
66019;HTU21D;52787;51.084;5.816;2022-08-11T03:03:02;21.44;54.98
66019;HTU21D;52787;51.084;5.816;2022-08-11T03:05:48;21.46;54.82
66019;HTU21D;52787;51.084;5.816;2022-08-11T03:08:46;21.45;54.71
66019;HTU21D;52787;51.084;5.816;2022-08-11T03:18:25;21.37;54.64
66019;HTU21D;52787;51.084;5.816;2022-08-11T03:24:04;21.36;54.75
66019;HTU21D;52787;51.084;5.816;2022-08-11T03:29:44;21.30;54.46
66019;HTU21D;52787;51.084;5.816;2022-08-11T03:32:39;21.25;54.89
66019;HTU21D;52787;51.084;5.816;2022-08-11T03:35:42;21.21;54.81
66019;HTU21D;52787;51.084;5.816;2022-08-11T03:38:15;21.18;54.99
66019;HTU21D;52787;51.084;5.816;2022-08-11T03:41:05;21.19;54.55
66019;HTU21D;52787;51.084;5.816;2022-08-11T03:52:57;21.07;54.94
66019;HTU21D;52787;51.084;5.816;2022-08-11T04:32:21;20.78;57.00
66019;HTU21D;52787;51.084;5.816;2022-08-11T04:49:57;20.66;57.66
66019;HTU21D;52787;51.084;5.816;2022-08-11T04:53:40;20.68;57.93
66019;HTU21D;52787;51.084;5.816;2022-08-11T04:56:36;20.66;58.38
66019;HTU21D;52787;51.084;5.816;2022-08-11T05:03:00;20.64;58.52
66019;HTU21D;52787;51.084;5.816;2022-08-11T05:09:33;20.68;57.95
66019;HTU21D;52787;51.084;5.816;2022-08-11T05:15:13;20.76;57.74
66019;HTU21D;52787;51.084;5.816;2022-08-11T05:18:16;20.75;57.75
66019;HTU21D;52787;51.084;5.816;2022-08-11T05:21:10;20.77;57.80
66019;HTU21D;52787;51.084;5.816;2022-08-11T05:24:05;20.78;57.93
66019;HTU21D;52787;51.084;5.816;2022-08-11T05:26:52;20.80;58.03
66019;HTU21D;52787;51.084;5.816;2022-08-11T05:29:47;20.86;57.61
66019;HTU21D;52787;51.084;5.816;2022-08-11T05:32:42;20.90;57.83
66019;HTU21D;52787;51.084;5.816;2022-08-11T05:35:40;20.94;57.68
66019;HTU21D;52787;51.084;5.816;2022-08-11T05:38:15;20.98;57.55
66019;HTU21D;52787;51.084;5.816;2022-08-11T05:41:03;20.99;57.33
66019;HTU21D;52787;51.084;5.816;2022-08-11T05:43:50;21.00;57.36
66019;HTU21D;52787;51.084;5.816;2022-08-11T05:46:40;21.03;57.25
66019;HTU21D;52787;51.084;5.816;2022-08-11T05:49:30;21.07;57.41
66019;HTU21D;52787;51.084;5.816;2022-08-11T05:52:20;21.16;57.36
66019;HTU21D;52787;51.084;5.816;2022-08-11T05:55:09;21.21;57.32
66019;HTU21D;52787;51.084;5.816;2022-08-11T05:58:12;21.25;57.56
66019;HTU21D;52787;51.084;5.816;2022-08-11T06:00:44;21.25;57.25
66019;HTU21D;52787;51.084;5.816;2022-08-11T06:03:24;21.31;56.87
66019;HTU21D;52787;51.084;5.816;2022-08-11T06:05:53;21.35;56.00
66019;HTU21D;52787;51.084;5.816;2022-08-11T06:08:28;21.39;55.68
66019;HTU21D;52787;51.084;5.816;2022-08-11T06:11:02;21.43;55.53
66019;HTU21D;52787;51.084;5.816;2022-08-11T06:13:29;21.43;55.36
66019;HTU21D;52787;51.084;5.816;2022-08-11T06:15:57;21.46;55.77
66019;HTU21D;52787;51.084;5.816;2022-08-11T06:18:24;21.51;55.86
66019;HTU21D;52787;51.084;5.816;2022-08-11T06:20:56;21.58;55.58
66019;HTU21D;52787;51.084;5.816;2022-08-11T06:23:25;21.67;55.07
66019;HTU21D;52787;51.084;5.816;2022-08-11T06:25:58;21.75;54.94
66019;HTU21D;52787;51.084;5.816;2022-08-11T06:28:31;21.78;54.44
66019;HTU21D;52787;51.084;5.816;2022-08-11T06:31:01;21.80;54.07
66019;HTU21D;52787;51.084;5.816;2022-08-11T06:34:00;21.89;54.37
66019;HTU21D;52787;51.084;5.816;2022-08-11T06:39:27;22.06;53.66
66019;HTU21D;52787;51.084;5.816;2022-08-11T06:42:10;22.11;53.31
66019;HTU21D;52787;51.084;5.816;2022-08-11T06:45:02;22.20;52.93
66019;HTU21D;52787;51.084;5.816;2022-08-11T06:47:33;22.26;53.13
66019;HTU21D;52787;51.084;5.816;2022-08-11T06:50:00;22.32;53.39
66019;HTU21D;52787;51.084;5.816;2022-08-11T06:52:46;22.39;52.82
66019;HTU21D;52787;51.084;5.816;2022-08-11T06:55:21;22.47;52.72
66019;HTU21D;52787;51.084;5.816;2022-08-11T06:58:15;22.52;52.03
66019;HTU21D;52787;51.084;5.816;2022-08-11T07:01:10;22.56;51.53
66019;HTU21D;52787;51.084;5.816;2022-08-11T07:03:43;22.64;51.59
66019;HTU21D;52787;51.084;5.816;2022-08-11T07:06:32;22.72;51.44
66019;HTU21D;52787;51.084;5.816;2022-08-11T07:10:22;22.83;51.19
66019;HTU21D;52787;51.084;5.816;2022-08-11T07:13:14;22.92;51.24
66019;HTU21D;52787;51.084;5.816;2022-08-11T07:16:01;23.01;51.25
66019;HTU21D;52787;51.084;5.816;2022-08-11T07:18:32;23.08;50.85
66019;HTU21D;52787;51.084;5.816;2022-08-11T07:21:30;23.15;50.71
66019;HTU21D;52787;51.084;5.816;2022-08-11T07:24:28;23.24;49.98
66019;HTU21D;52787;51.084;5.816;2022-08-11T07:27:19;23.36;49.70
66019;HTU21D;52787;51.084;5.816;2022-08-11T07:30:09;23.42;49.50
66019;HTU21D;52787;51.084;5.816;2022-08-11T07:33:02;23.47;49.69
66019;HTU21D;52787;51.084;5.816;2022-08-11T07:35:32;23.51;49.42
66019;HTU21D;52787;51.084;5.816;2022-08-11T07:38:05;23.54;49.66
66019;HTU21D;52787;51.084;5.816;2022-08-11T07:40:33;23.60;49.53
66019;HTU21D;52787;51.084;5.816;2022-08-11T07:43:00;23.65;49.39
66019;HTU21D;52787;51.084;5.816;2022-08-11T07:45:29;23.71;49.48
66019;HTU21D;52787;51.084;5.816;2022-08-11T07:48:15;23.80;49.31
66019;HTU21D;52787;51.084;5.816;2022-08-11T07:51:00;23.86;48.91
66019;HTU21D;52787;51.084;5.816;2022-08-11T07:53:47;23.98;48.14
66019;HTU21D;52787;51.084;5.816;2022-08-11T07:56:14;24.09;48.05
66019;HTU21D;52787;51.084;5.816;2022-08-11T07:58:42;24.18;47.71
66019;HTU21D;52787;51.084;5.816;2022-08-11T08:01:28;24.27;47.67
66019;HTU21D;52787;51.084;5.816;2022-08-11T08:04:16;24.38;48.16
66019;HTU21D;52787;51.084;5.816;2022-08-11T08:07:03;24.47;47.45
66019;HTU21D;52787;51.084;5.816;2022-08-11T08:09:50;24.59;46.38
66019;HTU21D;52787;51.084;5.816;2022-08-11T08:12:35;24.69;45.43
66019;HTU21D;52787;51.084;5.816;2022-08-11T08:15:21;24.80;44.98
66019;HTU21D;52787;51.084;5.816;2022-08-11T08:18:07;24.92;45.28
66019;HTU21D;52787;51.084;5.816;2022-08-11T08:20:37;25.05;44.56
66019;HTU21D;52787;51.084;5.816;2022-08-11T08:23:05;25.18;44.23
66019;HTU21D;52787;51.084;5.816;2022-08-11T08:25:35;25.33;44.21
66019;HTU21D;52787;51.084;5.816;2022-08-11T08:28:10;25.46;43.42
66019;HTU21D;52787;51.084;5.816;2022-08-11T08:30:42;25.60;44.28
66019;HTU21D;52787;51.084;5.816;2022-08-11T08:33:28;25.74;42.79
66019;HTU21D;52787;51.084;5.816;2022-08-11T08:35:59;25.86;42.74
66019;HTU21D;52787;51.084;5.816;2022-08-11T08:38:46;25.99;41.92
66019;HTU21D;52787;51.084;5.816;2022-08-11T08:41:35;26.10;41.61
66019;HTU21D;52787;51.084;5.816;2022-08-11T08:44:08;26.24;41.69
66019;HTU21D;52787;51.084;5.816;2022-08-11T08:46:44;26.39;42.11
66019;HTU21D;52787;51.084;5.816;2022-08-11T08:49:17;26.51;42.19
66019;HTU21D;52787;51.084;5.816;2022-08-11T08:51:53;26.64;41.96
66019;HTU21D;52787;51.084;5.816;2022-08-11T08:54:26;26.76;41.50
66019;HTU21D;52787;51.084;5.816;2022-08-11T08:56:56;26.87;41.26
66019;HTU21D;52787;51.084;5.816;2022-08-11T08:59:25;26.99;41.06
66019;HTU21D;52787;51.084;5.816;2022-08-11T09:01:57;27.12;40.89
66019;HTU21D;52787;51.084;5.816;2022-08-11T09:04:30;27.21;40.61
66019;HTU21D;52787;51.084;5.816;2022-08-11T09:07:02;27.32;39.71
66019;HTU21D;52787;51.084;5.816;2022-08-11T09:09:32;27.40;38.87
66019;HTU21D;52787;51.084;5.816;2022-08-11T09:12:01;27.53;39.27
66019;HTU21D;52787;51.084;5.816;2022-08-11T09:14:35;27.64;39.12
66019;HTU21D;52787;51.084;5.816;2022-08-11T09:17:26;27.79;39.13
66019;HTU21D;52787;51.084;5.816;2022-08-11T09:20:06;27.93;38.84
66019;HTU21D;52787;51.084;5.816;2022-08-11T09:22:35;28.05;38.08
66019;HTU21D;52787;51.084;5.816;2022-08-11T09:25:27;28.15;36.91
66019;HTU21D;52787;51.084;5.816;2022-08-11T09:28:15;28.26;37.73
66019;HTU21D;52787;51.084;5.816;2022-08-11T09:30:46;28.34;36.40
66019;HTU21D;52787;51.084;5.816;2022-08-11T09:33:19;28.39;36.50
66019;HTU21D;52787;51.084;5.816;2022-08-11T09:35:49;28.50;36.88
66019;HTU21D;52787;51.084;5.816;2022-08-11T09:38:19;28.60;36.72
66019;HTU21D;52787;51.084;5.816;2022-08-11T09:41:12;28.70;36.57
66019;HTU21D;52787;51.084;5.816;2022-08-11T09:43:42;28.82;36.11
66019;HTU21D;52787;51.084;5.816;2022-08-11T09:46:29;28.90;35.89
66019;HTU21D;52787;51.084;5.816;2022-08-11T09:48:58;29.00;35.28
66019;HTU21D;52787;51.084;5.816;2022-08-11T09:51:30;29.14;34.17
66019;HTU21D;52787;51.084;5.816;2022-08-11T09:54:00;29.24;35.15
66019;HTU21D;52787;51.084;5.816;2022-08-11T09:56:31;29.34;33.75
66019;HTU21D;52787;51.084;5.816;2022-08-11T09:59:21;29.42;33.73
66019;HTU21D;52787;51.084;5.816;2022-08-11T10:02:06;29.53;33.32
66019;HTU21D;52787;51.084;5.816;2022-08-11T10:04:42;29.65;33.83
66019;HTU21D;52787;51.084;5.816;2022-08-11T10:07:20;29.78;34.06
66019;HTU21D;52787;51.084;5.816;2022-08-11T10:09:50;29.91;32.86
66019;HTU21D;52787;51.084;5.816;2022-08-11T10:12:45;30.08;32.99
66019;HTU21D;52787;51.084;5.816;2022-08-11T10:15:18;30.21;32.49
66019;HTU21D;52787;51.084;5.816;2022-08-11T10:18:12;30.33;31.76
66019;HTU21D;52787;51.084;5.816;2022-08-11T10:21:09;30.42;30.83
66019;HTU21D;52787;51.084;5.816;2022-08-11T10:23:38;30.53;30.97
66019;HTU21D;52787;51.084;5.816;2022-08-11T10:26:26;30.64;29.25
66019;HTU21D;52787;51.084;5.816;2022-08-11T10:29:14;30.71;29.84
66019;HTU21D;52787;51.084;5.816;2022-08-11T10:32:00;30.82;28.42
66019;HTU21D;52787;51.084;5.816;2022-08-11T10:34:48;30.93;28.97
66019;HTU21D;52787;51.084;5.816;2022-08-11T10:37:16;31.10;28.60
66019;HTU21D;52787;51.084;5.816;2022-08-11T10:39:54;31.25;27.73
66019;HTU21D;52787;51.084;5.816;2022-08-11T10:42:28;31.41;28.16
66019;HTU21D;52787;51.084;5.816;2022-08-11T10:45:16;31.59;27.18
66019;HTU21D;52787;51.084;5.816;2022-08-11T10:48:04;31.74;26.55
66019;HTU21D;52787;51.084;5.816;2022-08-11T10:50:32;31.86;24.55
66019;HTU21D;52787;51.084;5.816;2022-08-11T10:53:18;31.96;24.56
66019;HTU21D;52787;51.084;5.816;2022-08-11T10:56:05;32.11;24.33
66019;HTU21D;52787;51.084;5.816;2022-08-11T10:58:52;32.17;23.54
66019;HTU21D;52787;51.084;5.816;2022-08-11T11:01:32;32.28;23.12
66019;HTU21D;52787;51.084;5.816;2022-08-11T11:04:21;32.41;25.06
66019;HTU21D;52787;51.084;5.816;2022-08-11T11:07:05;32.47;23.12
66019;HTU21D;52787;51.084;5.816;2022-08-11T11:10:01;32.56;23.37
66019;HTU21D;52787;51.084;5.816;2022-08-11T11:12:46;32.62;23.37
66019;HTU21D;52787;51.084;5.816;2022-08-11T11:15:43;32.71;23.79
66019;HTU21D;52787;51.084;5.816;2022-08-11T11:18:35;32.77;23.12
66019;HTU21D;52787;51.084;5.816;2022-08-11T11:21:07;32.85;23.21
66019;HTU21D;52787;51.084;5.816;2022-08-11T11:27:36;32.89;22.37
66019;HTU21D;52787;51.084;5.816;2022-08-11T11:33:50;33.02;23.09
66019;HTU21D;52787;51.084;5.816;2022-08-11T11:36:48;33.09;22.98
66019;HTU21D;52787;51.084;5.816;2022-08-11T11:39:20;33.13;22.44
66019;HTU21D;52787;51.084;5.816;2022-08-11T11:41:53;33.18;22.63
66019;HTU21D;52787;51.084;5.816;2022-08-11T11:44:23;33.21;22.33
66019;HTU21D;52787;51.084;5.816;2022-08-11T11:46:50;33.23;21.85
66019;HTU21D;52787;51.084;5.816;2022-08-11T11:49:24;33.28;21.71
66019;HTU21D;52787;51.084;5.816;2022-08-11T11:51:55;33.33;22.05
66019;HTU21D;52787;51.084;5.816;2022-08-11T11:54:27;33.37;21.95
66019;HTU21D;52787;51.084;5.816;2022-08-11T11:56:56;33.38;22.60
66019;HTU21D;52787;51.084;5.816;2022-08-11T11:59:26;33.44;22.48
66019;HTU21D;52787;51.084;5.816;2022-08-11T12:02:14;33.47;23.09
66019;HTU21D;52787;51.084;5.816;2022-08-11T12:04:43;33.52;22.84
66019;HTU21D;52787;51.084;5.816;2022-08-11T12:07:10;33.53;23.01
66019;HTU21D;52787;51.084;5.816;2022-08-11T12:09:57;33.61;21.50
66019;HTU21D;52787;51.084;5.816;2022-08-11T12:12:24;33.68;20.18
66019;HTU21D;52787;51.084;5.816;2022-08-11T12:15:10;33.75;20.90
66019;HTU21D;52787;51.084;5.816;2022-08-11T12:17:37;33.82;21.47
66019;HTU21D;52787;51.084;5.816;2022-08-11T12:20:05;33.95;22.06
66019;HTU21D;52787;51.084;5.816;2022-08-11T12:22:34;34.05;22.33
66019;HTU21D;52787;51.084;5.816;2022-08-11T12:25:20;34.10;21.46
66019;HTU21D;52787;51.084;5.816;2022-08-11T12:28:04;34.20;19.97
66019;HTU21D;52787;51.084;5.816;2022-08-11T12:30:31;34.27;21.52
66019;HTU21D;52787;51.084;5.816;2022-08-11T12:32:57;34.35;22.82
66019;HTU21D;52787;51.084;5.816;2022-08-11T12:35:23;34.40;20.15
66019;HTU21D;52787;51.084;5.816;2022-08-11T12:37:54;34.38;20.78
66019;HTU21D;52787;51.084;5.816;2022-08-11T12:40:26;34.38;21.22
66019;HTU21D;52787;51.084;5.816;2022-08-11T12:43:19;34.45;19.06
66019;HTU21D;52787;51.084;5.816;2022-08-11T12:46:13;34.53;18.34
66019;HTU21D;52787;51.084;5.816;2022-08-11T12:48:46;34.57;20.81
66019;HTU21D;52787;51.084;5.816;2022-08-11T12:51:37;34.63;22.48
66019;HTU21D;52787;51.084;5.816;2022-08-11T12:54:47;34.73;21.38
66019;HTU21D;52787;51.084;5.816;2022-08-11T12:57:39;34.77;21.02
66019;HTU21D;52787;51.084;5.816;2022-08-11T13:00:30;34.83;18.86
66019;HTU21D;52787;51.084;5.816;2022-08-11T13:03:19;34.85;20.86
66019;HTU21D;52787;51.084;5.816;2022-08-11T13:06:06;34.96;19.78
66019;HTU21D;52787;51.084;5.816;2022-08-11T13:08:37;34.96;19.11
66019;HTU21D;52787;51.084;5.816;2022-08-11T13:11:06;34.99;18.28
66019;HTU21D;52787;51.084;5.816;2022-08-11T13:13:53;34.98;18.67
66019;HTU21D;52787;51.084;5.816;2022-08-11T13:16:24;34.99;19.19
66019;HTU21D;52787;51.084;5.816;2022-08-11T13:18:54;35.01;20.15
66019;HTU21D;52787;51.084;5.816;2022-08-11T13:21:23;35.06;19.94
66019;HTU21D;52787;51.084;5.816;2022-08-11T13:23:53;35.09;20.02
66019;HTU21D;52787;51.084;5.816;2022-08-11T13:26:22;35.15;20.28
66019;HTU21D;52787;51.084;5.816;2022-08-11T13:28:50;35.19;20.54
66019;HTU21D;52787;51.084;5.816;2022-08-11T13:31:17;35.25;20.48
66019;HTU21D;52787;51.084;5.816;2022-08-11T13:33:52;35.30;19.27
66019;HTU21D;52787;51.084;5.816;2022-08-11T13:36:26;35.28;18.89
66019;HTU21D;52787;51.084;5.816;2022-08-11T13:38:55;35.30;19.13
66019;HTU21D;52787;51.084;5.816;2022-08-11T13:41:26;35.28;18.54
66019;HTU21D;52787;51.084;5.816;2022-08-11T13:44:07;35.27;18.26
66019;HTU21D;52787;51.084;5.816;2022-08-11T13:46:35;35.33;18.60
66019;HTU21D;52787;51.084;5.816;2022-08-11T13:49:02;35.34;17.54
66019;HTU21D;52787;51.084;5.816;2022-08-11T13:51:31;35.42;18.33
66019;HTU21D;52787;51.084;5.816;2022-08-11T13:54:01;35.53;18.15
66019;HTU21D;52787;51.084;5.816;2022-08-11T13:56:41;35.62;16.93
66019;HTU21D;52787;51.084;5.816;2022-08-11T13:59:09;35.59;17.98
66019;HTU21D;52787;51.084;5.816;2022-08-11T14:01:41;35.55;18.74
66019;HTU21D;52787;51.084;5.816;2022-08-11T14:04:15;35.56;18.64
66019;HTU21D;52787;51.084;5.816;2022-08-11T14:06:51;35.56;18.29
66019;HTU21D;52787;51.084;5.816;2022-08-11T14:09:26;35.50;17.64
66019;HTU21D;52787;51.084;5.816;2022-08-11T14:11:59;35.41;18.58
66019;HTU21D;52787;51.084;5.816;2022-08-11T14:14:58;35.38;19.47
66019;HTU21D;52787;51.084;5.816;2022-08-11T14:17:35;35.48;19.51
66019;HTU21D;52787;51.084;5.816;2022-08-11T14:20:08;35.60;18.79
66019;HTU21D;52787;51.084;5.816;2022-08-11T14:22:40;35.71;18.16
66019;HTU21D;52787;51.084;5.816;2022-08-11T14:25:10;35.75;19.40
66019;HTU21D;52787;51.084;5.816;2022-08-11T14:27:40;35.79;19.39
66019;HTU21D;52787;51.084;5.816;2022-08-11T14:30:09;35.81;18.82
66019;HTU21D;52787;51.084;5.816;2022-08-11T14:32:56;35.78;18.33
66019;HTU21D;52787;51.084;5.816;2022-08-11T14:35:26;35.57;18.87
66019;HTU21D;52787;51.084;5.816;2022-08-11T14:37:55;35.49;18.48
66019;HTU21D;52787;51.084;5.816;2022-08-11T14:40:22;35.54;19.74
66019;HTU21D;52787;51.084;5.816;2022-08-11T14:43:07;35.68;20.38
66019;HTU21D;52787;51.084;5.816;2022-08-11T14:45:54;35.79;18.69
66019;HTU21D;52787;51.084;5.816;2022-08-11T14:48:40;35.79;18.35
66019;HTU21D;52787;51.084;5.816;2022-08-11T14:51:06;35.85;19.19
66019;HTU21D;52787;51.084;5.816;2022-08-11T14:53:34;35.88;18.80
66019;HTU21D;52787;51.084;5.816;2022-08-11T14:56:01;35.90;18.02
66019;HTU21D;52787;51.084;5.816;2022-08-11T14:58:47;36.02;18.89
66019;HTU21D;52787;51.084;5.816;2022-08-11T15:01:14;36.11;18.93
66019;HTU21D;52787;51.084;5.816;2022-08-11T15:04:00;36.17;18.36
66019;HTU21D;52787;51.084;5.816;2022-08-11T15:06:27;36.18;18.32
66019;HTU21D;52787;51.084;5.816;2022-08-11T15:08:54;36.03;18.44
66019;HTU21D;52787;51.084;5.816;2022-08-11T15:11:24;36.07;18.58
66019;HTU21D;52787;51.084;5.816;2022-08-11T15:14:14;36.10;19.25
66019;HTU21D;52787;51.084;5.816;2022-08-11T15:17:01;36.18;19.15
66019;HTU21D;52787;51.084;5.816;2022-08-11T15:19:36;36.29;18.21
66019;HTU21D;52787;51.084;5.816;2022-08-11T15:22:25;36.44;17.64
66019;HTU21D;52787;51.084;5.816;2022-08-11T15:25:10;36.46;18.28
66019;HTU21D;52787;51.084;5.816;2022-08-11T15:27:39;36.31;18.62
66019;HTU21D;52787;51.084;5.816;2022-08-11T15:30:26;36.31;18.95
66019;HTU21D;52787;51.084;5.816;2022-08-11T15:33:14;36.27;19.45
66019;HTU21D;52787;51.084;5.816;2022-08-11T15:36:05;36.24;19.39
66019;HTU21D;52787;51.084;5.816;2022-08-11T15:38:59;36.21;19.27
66019;HTU21D;52787;51.084;5.816;2022-08-11T15:41:38;36.23;19.11
66019;HTU21D;52787;51.084;5.816;2022-08-11T15:44:32;36.23;19.14
66019;HTU21D;52787;51.084;5.816;2022-08-11T15:47:22;36.26;19.16
66019;HTU21D;52787;51.084;5.816;2022-08-11T15:49:54;36.21;18.93
66019;HTU21D;52787;51.084;5.816;2022-08-11T15:52:30;36.15;18.05
66019;HTU21D;52787;51.084;5.816;2022-08-11T15:55:05;35.92;19.12
66019;HTU21D;52787;51.084;5.816;2022-08-11T15:57:32;35.80;19.57
66019;HTU21D;52787;51.084;5.816;2022-08-11T16:00:21;35.71;20.08
66019;HTU21D;52787;51.084;5.816;2022-08-11T16:03:08;35.71;20.09
66019;HTU21D;52787;51.084;5.816;2022-08-11T16:05:54;35.71;20.18
66019;HTU21D;52787;51.084;5.816;2022-08-11T16:08:24;35.71;20.66
66019;HTU21D;52787;51.084;5.816;2022-08-11T16:10:53;35.68;20.76
66019;HTU21D;52787;51.084;5.816;2022-08-11T16:13:22;35.69;20.27
66019;HTU21D;52787;51.084;5.816;2022-08-11T16:15:55;35.83;20.15
66019;HTU21D;52787;51.084;5.816;2022-08-11T16:18:44;35.97;19.85
66019;HTU21D;52787;51.084;5.816;2022-08-11T16:21:23;35.96;19.48
66019;HTU21D;52787;51.084;5.816;2022-08-11T16:23:55;35.80;19.73
66019;HTU21D;52787;51.084;5.816;2022-08-11T16:26:25;35.60;20.32
66019;HTU21D;52787;51.084;5.816;2022-08-11T16:28:55;35.56;20.16
66019;HTU21D;52787;51.084;5.816;2022-08-11T16:31:25;35.56;20.73
66019;HTU21D;52787;51.084;5.816;2022-08-11T16:33:54;35.57;20.20
66019;HTU21D;52787;51.084;5.816;2022-08-11T16:36:25;35.49;19.94
66019;HTU21D;52787;51.084;5.816;2022-08-11T16:39:12;35.30;20.54
66019;HTU21D;52787;51.084;5.816;2022-08-11T16:41:46;35.28;20.82
66019;HTU21D;52787;51.084;5.816;2022-08-11T16:44:33;35.35;20.79
66019;HTU21D;52787;51.084;5.816;2022-08-11T16:47:21;35.42;21.02
66019;HTU21D;52787;51.084;5.816;2022-08-11T16:49:53;35.56;21.21
66019;HTU21D;52787;51.084;5.816;2022-08-11T16:52:23;35.69;20.40
66019;HTU21D;52787;51.084;5.816;2022-08-11T16:54:49;35.82;20.52
66019;HTU21D;52787;51.084;5.816;2022-08-11T16:57:22;35.97;20.39
66019;HTU21D;52787;51.084;5.816;2022-08-11T17:00:12;36.09;20.33
66019;HTU21D;52787;51.084;5.816;2022-08-11T17:02:45;36.18;20.34
66019;HTU21D;52787;51.084;5.816;2022-08-11T17:05:34;36.25;20.13
66019;HTU21D;52787;51.084;5.816;2022-08-11T17:08:32;36.12;19.40
66019;HTU21D;52787;51.084;5.816;2022-08-11T17:11:26;35.93;20.02
66019;HTU21D;52787;51.084;5.816;2022-08-11T17:14:17;35.90;20.14
66019;HTU21D;52787;51.084;5.816;2022-08-11T17:16:50;35.84;19.67
66019;HTU21D;52787;51.084;5.816;2022-08-11T17:19:24;35.69;20.02
66019;HTU21D;52787;51.084;5.816;2022-08-11T17:21:55;35.58;20.03
66019;HTU21D;52787;51.084;5.816;2022-08-11T17:24:44;35.52;20.21
66019;HTU21D;52787;51.084;5.816;2022-08-11T17:27:15;35.53;20.70
66019;HTU21D;52787;51.084;5.816;2022-08-11T17:29:49;35.48;20.46
66019;HTU21D;52787;51.084;5.816;2022-08-11T17:32:30;35.39;20.65
66019;HTU21D;52787;51.084;5.816;2022-08-11T17:35:21;35.41;20.68
66019;HTU21D;52787;51.084;5.816;2022-08-11T17:38:07;35.35;20.72
66019;HTU21D;52787;51.084;5.816;2022-08-11T17:40:39;35.25;20.40
66019;HTU21D;52787;51.084;5.816;2022-08-11T17:43:28;35.12;20.77
66019;HTU21D;52787;51.084;5.816;2022-08-11T17:46:15;34.98;21.22
66019;HTU21D;52787;51.084;5.816;2022-08-11T17:49:05;34.84;21.51
66019;HTU21D;52787;51.084;5.816;2022-08-11T17:51:36;34.78;21.19
66019;HTU21D;52787;51.084;5.816;2022-08-11T17:54:24;34.62;21.50
66019;HTU21D;52787;51.084;5.816;2022-08-11T17:57:13;34.40;22.03
66019;HTU21D;52787;51.084;5.816;2022-08-11T17:59:59;34.19;22.50
66019;HTU21D;52787;51.084;5.816;2022-08-11T18:02:36;34.04;22.57
66019;HTU21D;52787;51.084;5.816;2022-08-11T18:05:26;33.87;23.10
66019;HTU21D;52787;51.084;5.816;2022-08-11T18:07:58;33.68;23.43
66019;HTU21D;52787;51.084;5.816;2022-08-11T18:10:47;33.45;23.80
66019;HTU21D;52787;51.084;5.816;2022-08-11T18:13:36;33.25;24.08
66019;HTU21D;52787;51.084;5.816;2022-08-11T18:16:22;33.07;24.24
66019;HTU21D;52787;51.084;5.816;2022-08-11T18:19:09;32.88;24.64
66019;HTU21D;52787;51.084;5.816;2022-08-11T18:22:12;32.69;25.49
66019;HTU21D;52787;51.084;5.816;2022-08-11T18:25:12;32.52;25.75
66019;HTU21D;52787;51.084;5.816;2022-08-11T18:27:59;32.40;26.65
66019;HTU21D;52787;51.084;5.816;2022-08-11T18:30:47;32.28;27.36
66019;HTU21D;52787;51.084;5.816;2022-08-11T18:33:43;32.15;27.81
66019;HTU21D;52787;51.084;5.816;2022-08-11T18:36:37;32.00;27.83
66019;HTU21D;52787;51.084;5.816;2022-08-11T18:39:43;31.86;27.72
66019;HTU21D;52787;51.084;5.816;2022-08-11T18:42:32;31.74;28.27
66019;HTU21D;52787;51.084;5.816;2022-08-11T18:45:19;31.61;28.47
66019;HTU21D;52787;51.084;5.816;2022-08-11T18:48:13;31.48;28.70
66019;HTU21D;52787;51.084;5.816;2022-08-11T18:51:02;31.34;29.10
66019;HTU21D;52787;51.084;5.816;2022-08-11T18:53:56;31.20;29.48
66019;HTU21D;52787;51.084;5.816;2022-08-11T18:56:45;31.10;29.64
66019;HTU21D;52787;51.084;5.816;2022-08-11T18:59:37;31.01;29.90
66019;HTU21D;52787;51.084;5.816;2022-08-11T19:02:24;30.92;30.08
66019;HTU21D;52787;51.084;5.816;2022-08-11T19:05:11;30.79;30.08
66019;HTU21D;52787;51.084;5.816;2022-08-11T19:07:58;30.69;30.05
66019;HTU21D;52787;51.084;5.816;2022-08-11T19:10:46;30.59;30.56
66019;HTU21D;52787;51.084;5.816;2022-08-11T19:13:32;30.51;31.20
66019;HTU21D;52787;51.084;5.816;2022-08-11T19:16:23;30.42;31.27
66019;HTU21D;52787;51.084;5.816;2022-08-11T19:19:17;30.33;30.96
66019;HTU21D;52787;51.084;5.816;2022-08-11T19:22:04;30.25;31.19
66019;HTU21D;52787;51.084;5.816;2022-08-11T19:24:52;30.18;31.22
66019;HTU21D;52787;51.084;5.816;2022-08-11T19:27:40;30.08;31.41
66019;HTU21D;52787;51.084;5.816;2022-08-11T19:30:27;29.97;32.01
66019;HTU21D;52787;51.084;5.816;2022-08-11T19:33:14;29.83;31.90
66019;HTU21D;52787;51.084;5.816;2022-08-11T19:35:59;29.71;32.02